Terminal Aerodrome Forecast
Issued by NWS Wichita, KS

Home | Current Version | Previous Version | Graphics & Text | Print | Product List | Glossary On
Versions: 1 2 3 4 5 6 7 8 9 10 11 12 13 14 15 16 17 18 19 20 21 22
008
FTUS43 KICT 180534
TAFICT
TAF
KICT 180534Z 1806/1906 18005KT P6SM FEW200
     FM181800 17011KT P6SM SCT200
     FM190100 16006KT P6SM BKN110=

USA.gov is the U.S. government's official web portal to all federal, state and local government web resources and services.